sensor_id;sensor_type;location;lat;lon;timestamp;temperature;humidity
18229;DHT22;9239;50.932;3.142;2022-07-29T00:00:21;18.90;99.90
18229;DHT22;9239;50.932;3.142;2022-07-29T00:02:48;18.80;99.90
18229;DHT22;9239;50.932;3.142;2022-07-29T00:05:15;18.80;99.90
18229;DHT22;9239;50.932;3.142;2022-07-29T00:07:43;18.80;99.90
18229;DHT22;9239;50.932;3.142;2022-07-29T00:10:10;18.70;99.90
18229;DHT22;9239;50.932;3.142;2022-07-29T00:12:37;18.70;99.90
18229;DHT22;9239;50.932;3.142;2022-07-29T00:15:05;18.80;99.90
18229;DHT22;9239;50.932;3.142;2022-07-29T00:17:32;18.60;99.90
18229;DHT22;9239;50.932;3.142;2022-07-29T00:20:00;18.70;99.90
18229;DHT22;9239;50.932;3.142;2022-07-29T00:22:27;18.60;99.90
18229;DHT22;9239;50.932;3.142;2022-07-29T00:24:55;18.50;99.90
18229;DHT22;9239;50.932;3.142;2022-07-29T00:27:22;18.50;99.90
18229;DHT22;9239;50.932;3.142;2022-07-29T00:29:49;18.40;99.90
18229;DHT22;9239;50.932;3.142;2022-07-29T00:32:16;18.40;99.90
18229;DHT22;9239;50.932;3.142;2022-07-29T00:34:42;18.30;99.90
18229;DHT22;9239;50.932;3.142;2022-07-29T00:37:27;18.30;99.90
18229;DHT22;9239;50.932;3.142;2022-07-29T00:39:55;18.20;99.90
18229;DHT22;9239;50.932;3.142;2022-07-29T00:42:22;18.10;99.90
18229;DHT22;9239;50.932;3.142;2022-07-29T00:44:49;18.00;99.90
18229;DHT22;9239;50.932;3.142;2022-07-29T00:47:16;18.10;99.90
18229;DHT22;9239;50.932;3.142;2022-07-29T00:49:43;18.00;99.90
18229;DHT22;9239;50.932;3.142;2022-07-29T00:52:11;18.00;99.90
18229;DHT22;9239;50.932;3.142;2022-07-29T00:54:39;18.00;99.90
18229;DHT22;9239;50.932;3.142;2022-07-29T00:57:07;18.00;99.90
18229;DHT22;9239;50.932;3.142;2022-07-29T00:59:34;18.00;99.90
18229;DHT22;9239;50.932;3.142;2022-07-29T01:02:01;18.00;99.90
18229;DHT22;9239;50.932;3.142;2022-07-29T01:04:28;17.90;99.90
18229;DHT22;9239;50.932;3.142;2022-07-29T01:06:56;17.90;99.90
18229;DHT22;9239;50.932;3.142;2022-07-29T01:09:23;17.80;99.90
18229;DHT22;9239;50.932;3.142;2022-07-29T01:11:51;17.80;99.90
18229;DHT22;9239;50.932;3.142;2022-07-29T01:14:21;17.80;99.90
18229;DHT22;9239;50.932;3.142;2022-07-29T01:16:54;17.80;99.90
18229;DHT22;9239;50.932;3.142;2022-07-29T01:19:47;17.80;99.90
18229;DHT22;9239;50.932;3.142;2022-07-29T01:22:27;17.70;99.90
18229;DHT22;9239;50.932;3.142;2022-07-29T01:25:17;17.60;99.90
18229;DHT22;9239;50.932;3.142;2022-07-29T01:28:00;17.60;99.90
18229;DHT22;9239;50.932;3.142;2022-07-29T01:30:30;17.50;99.90
18229;DHT22;9239;50.932;3.142;2022-07-29T01:33:01;17.60;99.90
18229;DHT22;9239;50.932;3.142;2022-07-29T01:35:33;17.50;99.90
18229;DHT22;9239;50.932;3.142;2022-07-29T01:38:13;17.40;99.90
18229;DHT22;9239;50.932;3.142;2022-07-29T01:40:46;17.30;99.90
18229;DHT22;9239;50.932;3.142;2022-07-29T01:43:16;17.20;99.90
18229;DHT22;9239;50.932;3.142;2022-07-29T01:45:48;17.20;99.90
18229;DHT22;9239;50.932;3.142;2022-07-29T01:48:27;17.20;99.90
18229;DHT22;9239;50.932;3.142;2022-07-29T01:51:02;17.00;99.90
18229;DHT22;9239;50.932;3.142;2022-07-29T01:53:33;17.00;99.90
18229;DHT22;9239;50.932;3.142;2022-07-29T01:56:02;16.90;99.90
18229;DHT22;9239;50.932;3.142;2022-07-29T01:58:31;16.90;99.90
18229;DHT22;9239;50.932;3.142;2022-07-29T02:01:02;16.90;99.90
18229;DHT22;9239;50.932;3.142;2022-07-29T02:03:31;16.90;99.90
18229;DHT22;9239;50.932;3.142;2022-07-29T02:06:01;16.90;99.90
18229;DHT22;9239;50.932;3.142;2022-07-29T02:08:29;16.90;99.90
18229;DHT22;9239;50.932;3.142;2022-07-29T02:10:58;16.80;99.90
18229;DHT22;9239;50.932;3.142;2022-07-29T02:13:26;16.80;99.90
18229;DHT22;9239;50.932;3.142;2022-07-29T02:15:55;16.80;99.90
18229;DHT22;9239;50.932;3.142;2022-07-29T02:18:28;16.90;99.90
18229;DHT22;9239;50.932;3.142;2022-07-29T02:20:58;16.80;99.90
18229;DHT22;9239;50.932;3.142;2022-07-29T02:23:26;16.80;99.90
18229;DHT22;9239;50.932;3.142;2022-07-29T02:25:56;16.70;99.90
18229;DHT22;9239;50.932;3.142;2022-07-29T02:28:25;16.60;99.90
18229;DHT22;9239;50.932;3.142;2022-07-29T02:30:55;16.60;99.90
18229;DHT22;9239;50.932;3.142;2022-07-29T02:33:25;16.50;99.90
18229;DHT22;9239;50.932;3.142;2022-07-29T02:35:53;16.60;99.90
18229;DHT22;9239;50.932;3.142;2022-07-29T02:38:22;16.60;99.90
18229;DHT22;9239;50.932;3.142;2022-07-29T02:41:12;16.60;99.90
18229;DHT22;9239;50.932;3.142;2022-07-29T02:43:41;16.60;99.90
18229;DHT22;9239;50.932;3.142;2022-07-29T02:46:11;16.60;99.90
18229;DHT22;9239;50.932;3.142;2022-07-29T02:48:47;16.60;99.90
18229;DHT22;9239;50.932;3.142;2022-07-29T02:51:27;16.60;99.90
18229;DHT22;9239;50.932;3.142;2022-07-29T02:53:56;16.60;99.90
18229;DHT22;9239;50.932;3.142;2022-07-29T02:56:25;16.60;99.90
18229;DHT22;9239;50.932;3.142;2022-07-29T02:58:56;16.60;99.90
18229;DHT22;9239;50.932;3.142;2022-07-29T03:01:25;16.60;99.90
18229;DHT22;9239;50.932;3.142;2022-07-29T03:04:00;16.50;99.90
18229;DHT22;9239;50.932;3.142;2022-07-29T03:06:28;16.50;99.90
18229;DHT22;9239;50.932;3.142;2022-07-29T03:08:55;16.50;99.90
18229;DHT22;9239;50.932;3.142;2022-07-29T03:11:24;16.50;99.90
18229;DHT22;9239;50.932;3.142;2022-07-29T03:13:52;16.50;99.90
18229;DHT22;9239;50.932;3.142;2022-07-29T03:16:20;16.50;99.90
18229;DHT22;9239;50.932;3.142;2022-07-29T03:18:50;16.40;99.90
18229;DHT22;9239;50.932;3.142;2022-07-29T03:21:18;16.50;99.90
18229;DHT22;9239;50.932;3.142;2022-07-29T03:23:45;16.50;99.90
18229;DHT22;9239;50.932;3.142;2022-07-29T03:26:12;16.50;99.90
18229;DHT22;9239;50.932;3.142;2022-07-29T03:28:39;16.50;99.90
18229;DHT22;9239;50.932;3.142;2022-07-29T03:31:06;16.50;99.90
18229;DHT22;9239;50.932;3.142;2022-07-29T03:33:33;16.40;99.90
18229;DHT22;9239;50.932;3.142;2022-07-29T03:36:00;16.30;99.90
18229;DHT22;9239;50.932;3.142;2022-07-29T03:38:30;16.30;99.90
18229;DHT22;9239;50.932;3.142;2022-07-29T03:41:02;16.30;99.90
18229;DHT22;9239;50.932;3.142;2022-07-29T03:43:31;16.30;99.90
18229;DHT22;9239;50.932;3.142;2022-07-29T03:46:00;16.20;99.90
18229;DHT22;9239;50.932;3.142;2022-07-29T03:48:30;16.20;99.90
18229;DHT22;9239;50.932;3.142;2022-07-29T03:50:59;16.20;99.90
18229;DHT22;9239;50.932;3.142;2022-07-29T03:53:26;16.20;99.90
18229;DHT22;9239;50.932;3.142;2022-07-29T03:55:58;16.20;99.90
18229;DHT22;9239;50.932;3.142;2022-07-29T03:58:27;16.30;99.90
18229;DHT22;9239;50.932;3.142;2022-07-29T04:00:54;16.30;99.90
18229;DHT22;9239;50.932;3.142;2022-07-29T04:03:22;16.30;99.90
18229;DHT22;9239;50.932;3.142;2022-07-29T04:05:58;16.30;99.90
18229;DHT22;9239;50.932;3.142;2022-07-29T04:08:25;16.20;99.90
18229;DHT22;9239;50.932;3.142;2022-07-29T04:10:52;16.30;99.90
18229;DHT22;9239;50.932;3.142;2022-07-29T04:13:21;16.30;99.90
18229;DHT22;9239;50.932;3.142;2022-07-29T04:15:48;16.30;99.90
18229;DHT22;9239;50.932;3.142;2022-07-29T04:18:14;16.30;99.90
18229;DHT22;9239;50.932;3.142;2022-07-29T04:20:41;16.30;99.90
18229;DHT22;9239;50.932;3.142;2022-07-29T04:23:08;16.30;99.90
18229;DHT22;9239;50.932;3.142;2022-07-29T04:25:37;16.30;99.90
18229;DHT22;9239;50.932;3.142;2022-07-29T04:28:05;16.20;99.90
18229;DHT22;9239;50.932;3.142;2022-07-29T04:30:34;16.20;99.90
18229;DHT22;9239;50.932;3.142;2022-07-29T04:33:03;16.20;99.90
18229;DHT22;9239;50.932;3.142;2022-07-29T04:35:31;16.10;99.90
18229;DHT22;9239;50.932;3.142;2022-07-29T04:38:00;16.10;99.90
18229;DHT22;9239;50.932;3.142;2022-07-29T04:40:27;16.20;99.90
18229;DHT22;9239;50.932;3.142;2022-07-29T04:42:54;16.20;99.90
18229;DHT22;9239;50.932;3.142;2022-07-29T04:45:21;16.30;99.90
18229;DHT22;9239;50.932;3.142;2022-07-29T04:47:50;16.20;99.90
18229;DHT22;9239;50.932;3.142;2022-07-29T04:50:17;16.20;99.90
18229;DHT22;9239;50.932;3.142;2022-07-29T04:52:44;16.20;99.90
18229;DHT22;9239;50.932;3.142;2022-07-29T04:55:11;16.10;99.90
18229;DHT22;9239;50.932;3.142;2022-07-29T04:57:38;16.20;99.90
18229;DHT22;9239;50.932;3.142;2022-07-29T05:00:06;16.30;99.90
18229;DHT22;9239;50.932;3.142;2022-07-29T05:02:33;16.40;99.90
18229;DHT22;9239;50.932;3.142;2022-07-29T05:05:01;16.50;99.90
18229;DHT22;9239;50.932;3.142;2022-07-29T05:07:28;16.60;99.90
18229;DHT22;9239;50.932;3.142;2022-07-29T05:09:55;16.70;99.90
18229;DHT22;9239;50.932;3.142;2022-07-29T05:12:23;16.80;99.90
18229;DHT22;9239;50.932;3.142;2022-07-29T05:14:50;17.00;99.90
18229;DHT22;9239;50.932;3.142;2022-07-29T05:17:17;17.20;99.90
18229;DHT22;9239;50.932;3.142;2022-07-29T05:19:44;17.40;99.90
18229;DHT22;9239;50.932;3.142;2022-07-29T05:22:12;17.50;99.90
18229;DHT22;9239;50.932;3.142;2022-07-29T05:24:39;17.70;99.90
18229;DHT22;9239;50.932;3.142;2022-07-29T05:27:06;17.90;99.90
18229;DHT22;9239;50.932;3.142;2022-07-29T05:29:33;17.90;99.90
18229;DHT22;9239;50.932;3.142;2022-07-29T05:32:00;18.00;99.90
18229;DHT22;9239;50.932;3.142;2022-07-29T05:34:27;18.20;99.90
18229;DHT22;9239;50.932;3.142;2022-07-29T05:36:53;18.30;99.90
18229;DHT22;9239;50.932;3.142;2022-07-29T05:39:22;18.30;99.90
18229;DHT22;9239;50.932;3.142;2022-07-29T05:41:49;18.30;99.90
18229;DHT22;9239;50.932;3.142;2022-07-29T05:44:16;18.20;99.90
18229;DHT22;9239;50.932;3.142;2022-07-29T05:46:43;18.10;99.90
18229;DHT22;9239;50.932;3.142;2022-07-29T05:49:10;18.10;99.90
18229;DHT22;9239;50.932;3.142;2022-07-29T05:51:37;17.80;99.90
18229;DHT22;9239;50.932;3.142;2022-07-29T05:54:04;17.60;99.90
18229;DHT22;9239;50.932;3.142;2022-07-29T05:56:32;17.50;99.90
18229;DHT22;9239;50.932;3.142;2022-07-29T05:58:59;17.50;99.90
18229;DHT22;9239;50.932;3.142;2022-07-29T06:01:27;17.40;99.90
18229;DHT22;9239;50.932;3.142;2022-07-29T06:03:53;17.50;99.90
18229;DHT22;9239;50.932;3.142;2022-07-29T06:06:20;17.50;99.90
18229;DHT22;9239;50.932;3.142;2022-07-29T06:08:48;17.50;99.90
18229;DHT22;9239;50.932;3.142;2022-07-29T06:11:14;17.60;99.90
18229;DHT22;9239;50.932;3.142;2022-07-29T06:13:43;17.70;99.90
18229;DHT22;9239;50.932;3.142;2022-07-29T06:16:10;17.90;99.90
18229;DHT22;9239;50.932;3.142;2022-07-29T06:18:36;18.20;99.90
18229;DHT22;9239;50.932;3.142;2022-07-29T06:21:07;18.30;99.90
18229;DHT22;9239;50.932;3.142;2022-07-29T06:23:35;18.60;99.90
18229;DHT22;9239;50.932;3.142;2022-07-29T06:26:03;18.80;99.90
18229;DHT22;9239;50.932;3.142;2022-07-29T06:28:30;18.70;99.90
18229;DHT22;9239;50.932;3.142;2022-07-29T06:30:58;18.90;99.90
18229;DHT22;9239;50.932;3.142;2022-07-29T06:33:25;19.20;99.90
18229;DHT22;9239;50.932;3.142;2022-07-29T06:35:52;19.60;99.90
18229;DHT22;9239;50.932;3.142;2022-07-29T06:38:19;19.60;99.90
18229;DHT22;9239;50.932;3.142;2022-07-29T06:40:46;19.70;99.90
18229;DHT22;9239;50.932;3.142;2022-07-29T06:43:30;20.00;99.90
18229;DHT22;9239;50.932;3.142;2022-07-29T06:46:02;20.40;99.90
18229;DHT22;9239;50.932;3.142;2022-07-29T06:48:29;21.20;99.90
18229;DHT22;9239;50.932;3.142;2022-07-29T06:50:56;22.00;99.90
18229;DHT22;9239;50.932;3.142;2022-07-29T06:53:24;23.20;99.90
18229;DHT22;9239;50.932;3.142;2022-07-29T06:55:51;23.90;99.90
18229;DHT22;9239;50.932;3.142;2022-07-29T06:58:18;24.50;99.90
18229;DHT22;9239;50.932;3.142;2022-07-29T07:00:46;24.50;99.90
18229;DHT22;9239;50.932;3.142;2022-07-29T07:03:15;25.50;99.90
18229;DHT22;9239;50.932;3.142;2022-07-29T07:05:42;26.20;99.90
18229;DHT22;9239;50.932;3.142;2022-07-29T07:08:09;27.20;99.90
18229;DHT22;9239;50.932;3.142;2022-07-29T07:10:36;27.60;99.90
18229;DHT22;9239;50.932;3.142;2022-07-29T07:13:04;26.90;99.90
18229;DHT22;9239;50.932;3.142;2022-07-29T07:15:31;25.80;99.90
18229;DHT22;9239;50.932;3.142;2022-07-29T07:17:58;25.00;99.90
18229;DHT22;9239;50.932;3.142;2022-07-29T07:20:27;23.90;99.90
18229;DHT22;9239;50.932;3.142;2022-07-29T07:22:53;22.40;99.90
18229;DHT22;9239;50.932;3.142;2022-07-29T07:25:20;21.90;99.90
18229;DHT22;9239;50.932;3.142;2022-07-29T07:27:47;21.40;99.90
18229;DHT22;9239;50.932;3.142;2022-07-29T07:30:14;21.00;99.90
18229;DHT22;9239;50.932;3.142;2022-07-29T07:32:42;20.70;99.90
18229;DHT22;9239;50.932;3.142;2022-07-29T07:35:10;20.50;99.90
18229;DHT22;9239;50.932;3.142;2022-07-29T07:37:39;20.30;99.90
18229;DHT22;9239;50.932;3.142;2022-07-29T07:40:08;20.40;99.90
18229;DHT22;9239;50.932;3.142;2022-07-29T07:42:35;20.40;99.90
18229;DHT22;9239;50.932;3.142;2022-07-29T07:45:03;20.20;99.90
18229;DHT22;9239;50.932;3.142;2022-07-29T07:47:30;20.30;99.90
18229;DHT22;9239;50.932;3.142;2022-07-29T07:49:57;20.40;99.90
18229;DHT22;9239;50.932;3.142;2022-07-29T07:52:24;20.40;99.90
18229;DHT22;9239;50.932;3.142;2022-07-29T07:54:52;20.50;99.90
18229;DHT22;9239;50.932;3.142;2022-07-29T07:57:19;20.50;99.90
18229;DHT22;9239;50.932;3.142;2022-07-29T07:59:46;20.60;99.90
18229;DHT22;9239;50.932;3.142;2022-07-29T08:02:13;20.80;99.90
18229;DHT22;9239;50.932;3.142;2022-07-29T08:04:40;20.80;99.90
18229;DHT22;9239;50.932;3.142;2022-07-29T08:07:07;20.80;99.90
18229;DHT22;9239;50.932;3.142;2022-07-29T08:09:34;20.80;99.90
18229;DHT22;9239;50.932;3.142;2022-07-29T08:12:03;21.00;99.90
18229;DHT22;9239;50.932;3.142;2022-07-29T08:14:31;21.00;99.90
18229;DHT22;9239;50.932;3.142;2022-07-29T08:16:59;21.10;99.90
18229;DHT22;9239;50.932;3.142;2022-07-29T08:19:25;21.30;99.90
18229;DHT22;9239;50.932;3.142;2022-07-29T08:21:52;21.30;99.90
18229;DHT22;9239;50.932;3.142;2022-07-29T08:24:20;21.40;99.90
18229;DHT22;9239;50.932;3.142;2022-07-29T08:27:05;21.60;99.90
18229;DHT22;9239;50.932;3.142;2022-07-29T08:29:32;21.70;99.90
18229;DHT22;9239;50.932;3.142;2022-07-29T08:31:59;21.70;99.90
18229;DHT22;9239;50.932;3.142;2022-07-29T08:34:26;21.80;99.90
18229;DHT22;9239;50.932;3.142;2022-07-29T08:36:54;21.80;99.90
18229;DHT22;9239;50.932;3.142;2022-07-29T08:39:21;21.80;99.90
18229;DHT22;9239;50.932;3.142;2022-07-29T08:41:48;21.90;99.90
18229;DHT22;9239;50.932;3.142;2022-07-29T08:44:18;22.00;99.90
18229;DHT22;9239;50.932;3.142;2022-07-29T08:46:45;22.10;99.90
18229;DHT22;9239;50.932;3.142;2022-07-29T08:49:12;22.20;99.90
18229;DHT22;9239;50.932;3.142;2022-07-29T08:51:40;22.20;99.90
18229;DHT22;9239;50.932;3.142;2022-07-29T08:54:09;22.30;99.90
18229;DHT22;9239;50.932;3.142;2022-07-29T08:56:36;22.50;99.90
18229;DHT22;9239;50.932;3.142;2022-07-29T08:59:05;22.50;99.90
18229;DHT22;9239;50.932;3.142;2022-07-29T09:01:37;22.60;99.90
18229;DHT22;9239;50.932;3.142;2022-07-29T09:04:08;22.50;99.90
18229;DHT22;9239;50.932;3.142;2022-07-29T09:06:39;22.50;99.90
18229;DHT22;9239;50.932;3.142;2022-07-29T09:09:08;22.80;99.90
18229;DHT22;9239;50.932;3.142;2022-07-29T09:11:36;23.00;99.90
18229;DHT22;9239;50.932;3.142;2022-07-29T09:14:03;23.10;99.90
18229;DHT22;9239;50.932;3.142;2022-07-29T09:16:50;23.20;99.90
18229;DHT22;9239;50.932;3.142;2022-07-29T09:19:25;23.30;99.90
18229;DHT22;9239;50.932;3.142;2022-07-29T09:21:53;23.20;99.90
18229;DHT22;9239;50.932;3.142;2022-07-29T09:24:43;23.10;99.90
18229;DHT22;9239;50.932;3.142;2022-07-29T09:27:18;23.10;99.90
18229;DHT22;9239;50.932;3.142;2022-07-29T09:29:46;22.90;99.90
18229;DHT22;9239;50.932;3.142;2022-07-29T09:32:15;22.80;99.90
18229;DHT22;9239;50.932;3.142;2022-07-29T09:34:42;22.70;99.90
18229;DHT22;9239;50.932;3.142;2022-07-29T09:37:09;22.70;99.90
18229;DHT22;9239;50.932;3.142;2022-07-29T09:39:38;22.80;99.90
18229;DHT22;9239;50.932;3.142;2022-07-29T09:42:11;22.70;99.90
18229;DHT22;9239;50.932;3.142;2022-07-29T09:44:43;22.80;99.90
18229;DHT22;9239;50.932;3.142;2022-07-29T09:47:11;22.80;99.90
18229;DHT22;9239;50.932;3.142;2022-07-29T09:49:53;22.90;99.90
18229;DHT22;9239;50.932;3.142;2022-07-29T09:52:20;23.10;99.90
18229;DHT22;9239;50.932;3.142;2022-07-29T09:54:47;23.10;99.90
18229;DHT22;9239;50.932;3.142;2022-07-29T09:57:26;23.30;99.90
18229;DHT22;9239;50.932;3.142;2022-07-29T09:59:57;23.20;99.90
18229;DHT22;9239;50.932;3.142;2022-07-29T10:02:28;23.50;99.90
18229;DHT22;9239;50.932;3.142;2022-07-29T10:04:59;23.50;99.90
18229;DHT22;9239;50.932;3.142;2022-07-29T10:07:26;23.70;99.90
18229;DHT22;9239;50.932;3.142;2022-07-29T10:09:54;23.80;99.90
18229;DHT22;9239;50.932;3.142;2022-07-29T10:12:22;23.90;99.90
18229;DHT22;9239;50.932;3.142;2022-07-29T10:14:50;24.10;99.90
18229;DHT22;9239;50.932;3.142;2022-07-29T10:17:18;24.20;99.90
18229;DHT22;9239;50.932;3.142;2022-07-29T10:19:45;24.30;99.90
18229;DHT22;9239;50.932;3.142;2022-07-29T10:22:13;24.20;99.90
18229;DHT22;9239;50.932;3.142;2022-07-29T10:24:40;24.30;99.90
18229;DHT22;9239;50.932;3.142;2022-07-29T10:27:08;24.40;99.90
18229;DHT22;9239;50.932;3.142;2022-07-29T10:29:35;24.30;99.90
18229;DHT22;9239;50.932;3.142;2022-07-29T10:35:15;24.30;99.90
18229;DHT22;9239;50.932;3.142;2022-07-29T10:38:00;24.50;99.90
18229;DHT22;9239;50.932;3.142;2022-07-29T10:40:39;24.50;99.90
18229;DHT22;9239;50.932;3.142;2022-07-29T10:43:28;24.50;99.90
18229;DHT22;9239;50.932;3.142;2022-07-29T10:45:57;24.60;99.90
18229;DHT22;9239;50.932;3.142;2022-07-29T10:48:25;24.80;99.90
18229;DHT22;9239;50.932;3.142;2022-07-29T10:50:53;24.90;99.90
18229;DHT22;9239;50.932;3.142;2022-07-29T10:53:22;24.70;99.90
18229;DHT22;9239;50.932;3.142;2022-07-29T10:55:51;24.50;99.90
18229;DHT22;9239;50.932;3.142;2022-07-29T10:58:19;24.40;99.90
18229;DHT22;9239;50.932;3.142;2022-07-29T11:00:48;24.50;99.90
18229;DHT22;9239;50.932;3.142;2022-07-29T11:03:43;24.80;99.90
18229;DHT22;9239;50.932;3.142;2022-07-29T11:06:10;24.90;99.90
18229;DHT22;9239;50.932;3.142;2022-07-29T11:08:39;25.00;99.90
18229;DHT22;9239;50.932;3.142;2022-07-29T11:11:36;25.30;99.90
18229;DHT22;9239;50.932;3.142;2022-07-29T11:14:04;25.40;99.90
18229;DHT22;9239;50.932;3.142;2022-07-29T11:16:58;25.40;99.90
18229;DHT22;9239;50.932;3.142;2022-07-29T11:19:28;25.10;99.90
18229;DHT22;9239;50.932;3.142;2022-07-29T11:21:55;24.90;99.90
18229;DHT22;9239;50.932;3.142;2022-07-29T11:24:25;24.80;99.90
18229;DHT22;9239;50.932;3.142;2022-07-29T11:27:11;24.70;99.90
18229;DHT22;9239;50.932;3.142;2022-07-29T11:29:40;24.50;99.90
18229;DHT22;9239;50.932;3.142;2022-07-29T11:32:15;24.40;99.90
18229;DHT22;9239;50.932;3.142;2022-07-29T11:34:46;24.20;99.90
18229;DHT22;9239;50.932;3.142;2022-07-29T11:37:23;24.30;99.90
18229;DHT22;9239;50.932;3.142;2022-07-29T11:40:15;24.60;99.90
18229;DHT22;9239;50.932;3.142;2022-07-29T11:42:43;24.80;99.90
18229;DHT22;9239;50.932;3.142;2022-07-29T11:45:13;24.80;99.90
18229;DHT22;9239;50.932;3.142;2022-07-29T11:47:46;24.90;99.90
18229;DHT22;9239;50.932;3.142;2022-07-29T11:50:15;25.10;99.90
18229;DHT22;9239;50.932;3.142;2022-07-29T11:52:44;25.40;99.90
18229;DHT22;9239;50.932;3.142;2022-07-29T11:55:15;25.40;99.90
18229;DHT22;9239;50.932;3.142;2022-07-29T11:57:46;25.50;99.90
18229;DHT22;9239;50.932;3.142;2022-07-29T12:00:22;25.60;99.90
18229;DHT22;9239;50.932;3.142;2022-07-29T12:02:49;25.60;99.90
18229;DHT22;9239;50.932;3.142;2022-07-29T12:05:16;25.50;99.90
18229;DHT22;9239;50.932;3.142;2022-07-29T12:07:43;25.40;99.90
18229;DHT22;9239;50.932;3.142;2022-07-29T12:10:10;25.50;99.90
18229;DHT22;9239;50.932;3.142;2022-07-29T12:12:39;25.40;99.90
18229;DHT22;9239;50.932;3.142;2022-07-29T12:15:14;25.50;99.90
18229;DHT22;9239;50.932;3.142;2022-07-29T12:17:42;25.60;99.90
18229;DHT22;9239;50.932;3.142;2022-07-29T12:20:09;25.40;99.90
18229;DHT22;9239;50.932;3.142;2022-07-29T12:22:39;25.40;99.90
18229;DHT22;9239;50.932;3.142;2022-07-29T12:25:10;25.30;99.90
18229;DHT22;9239;50.932;3.142;2022-07-29T12:27:39;24.90;99.90
18229;DHT22;9239;50.932;3.142;2022-07-29T12:30:08;24.80;99.90
18229;DHT22;9239;50.932;3.142;2022-07-29T12:32:37;24.80;99.90
18229;DHT22;9239;50.932;3.142;2022-07-29T12:35:06;24.90;99.90
18229;DHT22;9239;50.932;3.142;2022-07-29T12:37:33;25.10;99.90
18229;DHT22;9239;50.932;3.142;2022-07-29T12:40:01;25.20;99.90
18229;DHT22;9239;50.932;3.142;2022-07-29T12:42:28;25.30;99.90
18229;DHT22;9239;50.932;3.142;2022-07-29T12:44:56;25.60;99.90
18229;DHT22;9239;50.932;3.142;2022-07-29T12:47:24;25.90;99.90
18229;DHT22;9239;50.932;3.142;2022-07-29T12:49:52;25.80;99.90
18229;DHT22;9239;50.932;3.142;2022-07-29T12:52:34;25.80;99.90
18229;DHT22;9239;50.932;3.142;2022-07-29T12:55:01;25.80;99.90
18229;DHT22;9239;50.932;3.142;2022-07-29T12:57:29;25.90;99.90
18229;DHT22;9239;50.932;3.142;2022-07-29T13:00:04;26.00;99.90
18229;DHT22;9239;50.932;3.142;2022-07-29T13:02:33;25.60;99.90
18229;DHT22;9239;50.932;3.142;2022-07-29T13:05:01;25.20;99.90
18229;DHT22;9239;50.932;3.142;2022-07-29T13:07:31;25.30;99.90
18229;DHT22;9239;50.932;3.142;2022-07-29T13:10:11;25.50;99.90
18229;DHT22;9239;50.932;3.142;2022-07-29T13:12:38;25.60;99.90
18229;DHT22;9239;50.932;3.142;2022-07-29T13:15:15;25.50;99.90
18229;DHT22;9239;50.932;3.142;2022-07-29T13:17:42;25.50;99.90
18229;DHT22;9239;50.932;3.142;2022-07-29T13:20:11;25.60;99.90
18229;DHT22;9239;50.932;3.142;2022-07-29T13:22:40;25.60;99.90
18229;DHT22;9239;50.932;3.142;2022-07-29T13:25:08;25.80;99.90
18229;DHT22;9239;50.932;3.142;2022-07-29T13:27:37;25.80;99.90
18229;DHT22;9239;50.932;3.142;2022-07-29T13:30:07;26.00;99.90
18229;DHT22;9239;50.932;3.142;2022-07-29T13:32:36;26.40;99.90
18229;DHT22;9239;50.932;3.142;2022-07-29T13:35:05;26.30;99.90
18229;DHT22;9239;50.932;3.142;2022-07-29T13:37:34;26.20;99.90
18229;DHT22;9239;50.932;3.142;2022-07-29T13:40:05;26.20;99.90
18229;DHT22;9239;50.932;3.142;2022-07-29T13:42:32;26.10;99.90
18229;DHT22;9239;50.932;3.142;2022-07-29T13:45:00;25.80;99.90
18229;DHT22;9239;50.932;3.142;2022-07-29T13:47:27;25.70;99.90
18229;DHT22;9239;50.932;3.142;2022-07-29T13:49:55;25.60;99.90
18229;DHT22;9239;50.932;3.142;2022-07-29T13:52:22;25.80;99.90
18229;DHT22;9239;50.932;3.142;2022-07-29T13:54:49;25.90;99.90
18229;DHT22;9239;50.932;3.142;2022-07-29T13:57:16;26.00;99.90
18229;DHT22;9239;50.932;3.142;2022-07-29T13:59:43;25.70;99.90
18229;DHT22;9239;50.932;3.142;2022-07-29T14:02:11;25.60;99.90
18229;DHT22;9239;50.932;3.142;2022-07-29T14:04:39;25.50;99.90
18229;DHT22;9239;50.932;3.142;2022-07-29T14:07:07;25.70;99.90
18229;DHT22;9239;50.932;3.142;2022-07-29T14:09:35;25.80;99.90
18229;DHT22;9239;50.932;3.142;2022-07-29T14:12:03;25.70;99.90
18229;DHT22;9239;50.932;3.142;2022-07-29T14:14:30;25.60;99.90
18229;DHT22;9239;50.932;3.142;2022-07-29T14:16:58;25.40;99.90
18229;DHT22;9239;50.932;3.142;2022-07-29T14:19:24;25.10;99.90
18229;DHT22;9239;50.932;3.142;2022-07-29T14:21:51;25.10;99.90
18229;DHT22;9239;50.932;3.142;2022-07-29T14:24:20;25.30;99.90
18229;DHT22;9239;50.932;3.142;2022-07-29T14:26:47;25.30;99.90
18229;DHT22;9239;50.932;3.142;2022-07-29T14:29:14;25.30;99.90
18229;DHT22;9239;50.932;3.142;2022-07-29T14:31:40;25.50;99.90
18229;DHT22;9239;50.932;3.142;2022-07-29T14:34:08;25.60;99.90
18229;DHT22;9239;50.932;3.142;2022-07-29T14:36:35;25.70;99.90
18229;DHT22;9239;50.932;3.142;2022-07-29T14:39:02;25.80;99.90
18229;DHT22;9239;50.932;3.142;2022-07-29T14:41:30;25.60;99.90
18229;DHT22;9239;50.932;3.142;2022-07-29T14:43:58;25.40;99.90
18229;DHT22;9239;50.932;3.142;2022-07-29T14:46:26;25.30;99.90
18229;DHT22;9239;50.932;3.142;2022-07-29T14:48:53;25.30;99.90
18229;DHT22;9239;50.932;3.142;2022-07-29T14:51:20;25.10;99.90
18229;DHT22;9239;50.932;3.142;2022-07-29T14:53:47;25.10;99.90
18229;DHT22;9239;50.932;3.142;2022-07-29T14:56:14;25.20;99.90
18229;DHT22;9239;50.932;3.142;2022-07-29T14:58:42;25.20;99.90
18229;DHT22;9239;50.932;3.142;2022-07-29T15:01:09;25.20;99.90
18229;DHT22;9239;50.932;3.142;2022-07-29T15:03:36;25.20;99.90
18229;DHT22;9239;50.932;3.142;2022-07-29T15:06:03;25.20;99.90
18229;DHT22;9239;50.932;3.142;2022-07-29T15:08:30;24.90;99.90
18229;DHT22;9239;50.932;3.142;2022-07-29T15:10:57;24.60;99.90
18229;DHT22;9239;50.932;3.142;2022-07-29T15:13:29;24.70;99.90
18229;DHT22;9239;50.932;3.142;2022-07-29T15:15:59;24.80;99.90
18229;DHT22;9239;50.932;3.142;2022-07-29T15:18:26;24.90;99.90
18229;DHT22;9239;50.932;3.142;2022-07-29T15:20:53;24.90;99.90
18229;DHT22;9239;50.932;3.142;2022-07-29T15:23:20;25.00;99.90
18229;DHT22;9239;50.932;3.142;2022-07-29T15:25:49;25.20;99.90
18229;DHT22;9239;50.932;3.142;2022-07-29T15:28:18;25.20;99.90
18229;DHT22;9239;50.932;3.142;2022-07-29T15:30:45;25.10;99.90
18229;DHT22;9239;50.932;3.142;2022-07-29T15:33:15;24.90;99.90
18229;DHT22;9239;50.932;3.142;2022-07-29T15:35:42;24.90;99.90
18229;DHT22;9239;50.932;3.142;2022-07-29T15:38:08;25.00;99.90
18229;DHT22;9239;50.932;3.142;2022-07-29T15:40:37;24.90;99.90
18229;DHT22;9239;50.932;3.142;2022-07-29T15:43:05;25.00;99.90
18229;DHT22;9239;50.932;3.142;2022-07-29T15:45:36;25.10;99.90
18229;DHT22;9239;50.932;3.142;2022-07-29T15:48:07;24.90;99.90
18229;DHT22;9239;50.932;3.142;2022-07-29T15:50:36;24.70;99.90
18229;DHT22;9239;50.932;3.142;2022-07-29T15:53:03;24.70;99.90
18229;DHT22;9239;50.932;3.142;2022-07-29T15:55:30;24.80;99.90
18229;DHT22;9239;50.932;3.142;2022-07-29T15:57:57;24.90;99.90
18229;DHT22;9239;50.932;3.142;2022-07-29T16:00:24;24.90;99.90